MSC Giovanna — 3FRB9 — position and weather

sailwx.info

Track history (hours):
 
Tides and Currents Weather Stations Pressure Air Temp Water Temp Dewpoint Dewpoint Depression Visibility Wind Speed Wind Dir Waves Ship Positions

MSC Giovanna

Last reported at 2016-Dec-09 00:21 UTC. Time now 2016-Dec-10 05:08 UTC.
Position N 32°56' E 034°39'.

Length 178 m; draft 8 m.

Type: Ship. MMSI: 357702000.

Date/timePositionNaut miles runAvg speedWind from/ knotsBaromVisibWave heightAir tempDewpointWater temp
2016-Dec-09 00:21N 32°56' E 034°39'1214.6
2016-Dec-08 23:33N 32°53' E 034°52'8 8.1
2016-Dec-08 22:33N 32°49' E 035°01'0 0.1
2016-Dec-08 21:33N 32°49' E 035°01'0 0.0
2016-Dec-08 20:33N 32°49' E 035°01'0 0.0
2016-Dec-08 19:28N 32°49' E 035°01'0 0.0
2016-Dec-08 18:33N 32°49' E 035°01'0 0.0
2016-Dec-08 17:31N 32°49' E 035°01'0 0.0
2016-Dec-08 16:30N 32°49' E 035°01'0 0.0
2016-Dec-08 15:32N 32°49' E 035°01'0 0.0
2016-Dec-08 14:32N 32°49' E 035°01'0 0.0
2016-Dec-08 13:29N 32°49' E 035°01'0 0.0
2016-Dec-08 12:31N 32°49' E 035°01'0 0.0
2016-Dec-08 11:33N 32°49' E 035°01'0 0.0
2016-Dec-08 10:33N 32°49' E 035°01'0 0.0
2016-Dec-08 07:33N 32°49' E 035°01'0 0.0
2016-Dec-08 06:28N 32°49' E 035°01'0 0.0
2016-Dec-08 05:29N 32°49' E 035°01'0 0.0
2016-Dec-08 04:32N 32°49' E 035°01'0 0.0
2016-Dec-08 03:33N 32°49' E 035°01'0 0.0
2016-Dec-08 02:25N 32°49' E 035°01'0 0.0
2016-Dec-08 01:31N 32°49' E 035°01'0 0.0
2016-Dec-08 00:31N 32°49' E 035°01'0 0.0
2016-Dec-07 23:31N 32°49' E 035°01'0 0.0
2016-Dec-07 22:31N 32°49' E 035°01'0 0.0
2016-Dec-07 21:31N 32°49' E 035°01'0 0.0
2016-Dec-07 20:32N 32°49' E 035°01'0 0.0
2016-Dec-07 19:31N 32°49' E 035°01'0 0.0
2016-Dec-07 18:31N 32°49' E 035°01'0 0.0
2016-Dec-07 17:33N 32°49' E 035°01'0 0.0
2016-Dec-07 16:31N 32°49' E 035°01'0 0.0
2016-Dec-07 15:28N 32°49' E 035°01'1 1.6
2016-Dec-07 14:33N 32°50' E 035°01'8 8.3
2016-Dec-07 13:32N 32°52' E 034°51'1414.4
2016-Dec-07 12:32N 32°38' E 034°46'1514.8
2016-Dec-07 11:33N 32°24' E 034°40'1515.0
2016-Dec-07 10:33N 32°10' E 034°35'1614.7
2016-Dec-07 09:26N 31°55' E 034°28'  
2016-Dec-04 15:26N 31°51' E 034°38'3 0.3
2016-Dec-04 04:12N 31°49' E 034°35'0 0.0
2016-Dec-04 01:29N 31°49' E 034°35'5310.7
2016-Dec-03 20:33N 32°38' E 034°12'1613.9
2016-Dec-03 19:26N 32°54' E 034°15'  
Track history (hours):
 
Tides and Currents Weather Stations Pressure Air Temp Water Temp Dewpoint Dewpoint Depression Visibility Wind Speed Wind Dir Waves Ship Positions

MSC Giovanna

Last reported at 2016-Dec-09 00:21 UTC. Time now 2016-Dec-10 05:08 UTC.
Position N 32°56' E 034°39'.

Length 178 m; draft 8 m.

Type: Ship. MMSI: 357702000.

Date/timePositionNaut miles runAvg speedWind from/ knotsBaromVisibWave heightAir tempDewpointWater temp
2016-Dec-09 00:21N 32°56' E 034°39'1214.6
2016-Dec-08 23:33N 32°53' E 034°52'8 8.1
2016-Dec-08 22:33N 32°49' E 035°01'0 0.1
2016-Dec-08 21:33N 32°49' E 035°01'0 0.0
2016-Dec-08 20:33N 32°49' E 035°01'0 0.0
2016-Dec-08 19:28N 32°49' E 035°01'0 0.0
2016-Dec-08 18:33N 32°49' E 035°01'0 0.0
2016-Dec-08 17:31N 32°49' E 035°01'0 0.0
2016-Dec-08 16:30N 32°49' E 035°01'0 0.0
2016-Dec-08 15:32N 32°49' E 035°01'0 0.0
2016-Dec-08 14:32N 32°49' E 035°01'0 0.0
2016-Dec-08 13:29N 32°49' E 035°01'0 0.0
2016-Dec-08 12:31N 32°49' E 035°01'0 0.0
2016-Dec-08 11:33N 32°49' E 035°01'0 0.0
2016-Dec-08 10:33N 32°49' E 035°01'0 0.0
2016-Dec-08 07:33N 32°49' E 035°01'0 0.0
2016-Dec-08 06:28N 32°49' E 035°01'0 0.0
2016-Dec-08 05:29N 32°49' E 035°01'0 0.0
2016-Dec-08 04:32N 32°49' E 035°01'0 0.0
2016-Dec-08 03:33N 32°49' E 035°01'0 0.0
2016-Dec-08 02:25N 32°49' E 035°01'0 0.0
2016-Dec-08 01:31N 32°49' E 035°01'0 0.0
2016-Dec-08 00:31N 32°49' E 035°01'0 0.0
2016-Dec-07 23:31N 32°49' E 035°01'0 0.0
2016-Dec-07 22:31N 32°49' E 035°01'0 0.0
2016-Dec-07 21:31N 32°49' E 035°01'0 0.0
2016-Dec-07 20:32N 32°49' E 035°01'0 0.0
2016-Dec-07 19:31N 32°49' E 035°01'0 0.0
2016-Dec-07 18:31N 32°49' E 035°01'0 0.0
2016-Dec-07 17:33N 32°49' E 035°01'0 0.0
2016-Dec-07 16:31N 32°49' E 035°01'0 0.0
2016-Dec-07 15:28N 32°49' E 035°01'1 1.6
2016-Dec-07 14:33N 32°50' E 035°01'8 8.3
2016-Dec-07 13:32N 32°52' E 034°51'1414.4
2016-Dec-07 12:32N 32°38' E 034°46'1514.8
2016-Dec-07 11:33N 32°24' E 034°40'1515.0
2016-Dec-07 10:33N 32°10' E 034°35'1614.7
2016-Dec-07 09:26N 31°55' E 034°28'  
2016-Dec-04 15:26N 31°51' E 034°38'3 0.3
2016-Dec-04 04:12N 31°49' E 034°35'0 0.0
2016-Dec-04 01:29N 31°49' E 034°35'5310.7
2016-Dec-03 20:33N 32°38' E 034°12'1613.9
2016-Dec-03 19:26N 32°54' E 034°15'  

Dump ship's entire track history